Flight Track Log - Related Links

Times and Time Zones

All times are in EDT time to prevent confusion due to time zone crossing. See the BJS542 flight status page for this flight to view local times or setup timezone preferences in your user account.

Time Position Orientation Groundspeed Altitude Reporting Facility
EDT Latitude Longitude Course Direction KTS MPH feet Rate Location/Type
Sat 08:06:52 PM 34.0528 -80.9400 50° Northeast 256 295 10,500  Level Jacksonville Center
Sat 08:07:52 PM 34.1183 -80.8558 47° Northeast 298 343 14,100 3,750 Climbing Jacksonville Center
Sat 08:08:52 PM 34.1878 -80.7614 48° Northeast 340 391 18,000 3,600 Climbing Jacksonville Center
Sat 08:09:52 PM 34.2633 -80.6664 46° Northeast 371 427 21,300 3,200 Climbing Jacksonville Center
Sat 08:10:00 PM 34.4080 -80.4529 50° Northeast  Level FlightAware Approximate
Sat 08:10:52 PM 34.3406 -80.5614 48° Northeast 399 459 24,400  Level Jacksonville Center
Sat 08:11:52 PM 34.4219 -80.4483 49° Northeast 416 479 27,400 2,512 Climbing Jacksonville Center
Sat 08:14:15 PM 34.6294 -80.2033 44° Northeast 449 517 32,900 2,217 Climbing Washington Center
Sat 08:15:15 PM 34.7253 -80.0975 42° Northeast 458 527 34,900 1,835 Climbing Washington Center
Sat 08:16:16 PM 34.8256 -79.9867 42° Northeast 473 544 36,600 1,033 Climbing Washington Center
Sat 08:17:17 PM 34.9236 -79.8731 44° Northeast 478 550 37,000 344 Climbing Washington Center
Sat 08:18:18 PM 35.0233 -79.7642 42° Northeast 478 550 37,300 1,271 Climbing Washington Center
Sat 08:19:15 PM 35.1189 -79.6547 43° Northeast 478 550 39,500 2,237 Climbing Washington Center
Sat 08:20:16 PM 35.2100 -79.5500 43° Northeast 463 533 41,700 1,525 Climbing Washington Center
Sat 08:21:17 PM 35.2989 -79.4475 43° Northeast 444 511 42,600 756 Climbing Washington Center
Sat 08:22:15 PM 35.3875 -79.3525 41° Northeast 449 517 43,200 610 Climbing Washington Center
Sat 08:23:15 PM 35.4697 -79.2569 43° Northeast 455 524 43,800 793 Climbing Washington Center
Sat 08:24:16 PM 35.5942 -79.1450 36° Northeast 463 533 44,800 590 Climbing Washington Center
Sat 08:25:17 PM 35.6969 -79.0525 36° Northeast 453 521 45,000 101 Climbing Washington Center
Sat 08:26:15 PM 35.8019 -78.9572 36° Northeast 458 527 45,000  Level Washington Center
Sat 08:27:17 PM 35.9050 -78.8589 38° Northeast 464 534 45,000  Level Washington Center
Sat 08:28:16 PM 36.0097 -78.7631 37° Northeast 469 540 45,000  Level Washington Center
Sat 08:29:17 PM 36.1144 -78.6672 36° Northeast 469 540 45,000  Level Washington Center
Sat 08:30:15 PM 36.2214 -78.5708 36° Northeast 469 540 45,000  Level Washington Center
Sat 08:31:16 PM 36.3258 -78.4717 37° Northeast 469 540 45,000  Level Washington Center
Sat 08:32:17 PM 36.4306 -78.3750 37° Northeast 469 540 45,000  Level Washington Center
Sat 08:33:15 PM 36.5369 -78.2753 37° Northeast 469 540 45,000  Level Washington Center
Sat 08:34:17 PM 36.6392 -78.1806 37° Northeast 469 540 45,000  Level Washington Center
Sat 08:35:18 PM 36.7417 -78.0775 39° Northeast 469 540 45,000  Level Washington Center
Sat 08:36:16 PM 36.8458 -77.9797 37° Northeast 469 540 45,000  Level Washington Center
Sat 08:37:15 PM 36.9478 -77.8814 38° Northeast 469 540 45,000  Level Washington Center
Sat 08:38:16 PM 37.0519 -77.7831 37° Northeast 469 540 45,000  Level Washington Center
Sat 08:39:16 PM 37.1539 -77.6869 37° Northeast 469 540 45,000  Level Washington Center
Sat 08:40:17 PM 37.2578 -77.5881 37° Northeast 469 540 45,000  Level Washington Center
Sat 08:41:15 PM 37.3594 -77.4889 38° Northeast 469 540 45,000  Level Washington Center
Sat 08:42:15 PM 37.4631 -77.3919 37° Northeast 469 540 45,000  Level Washington Center
Sat 08:43:17 PM 37.5669 -77.2897 38° Northeast 469 540 45,000  Level Washington Center
Sat 08:44:15 PM 37.6683 -77.1894 38° Northeast 469 540 45,000  Level Washington Center
Sat 08:45:16 PM 37.7717 -77.0892 37° Northeast 469 540 45,000  Level Washington Center
Sat 08:46:15 PM 37.8731 -76.9886 38° Northeast 469 540 45,000  Level Washington Center
Sat 08:47:15 PM 37.9744 -76.8878 38° Northeast 469 540 45,000  Level Washington Center
Sat 08:48:16 PM 38.0756 -76.7867 38° Northeast 464 534 45,000  Level Washington Center
Sat 08:49:17 PM 38.1744 -76.6878 38° Northeast 464 534 45,000  Level Washington Center
Sat 08:50:15 PM 38.2797 -76.5836 38° Northeast 464 534 45,000  Level Washington Center
Sat 08:51:15 PM 38.3678 -76.4972 38° Northeast 462 532 45,000  Level Washington Center
Sat 08:52:17 PM 38.4686 -76.3925 39° Northeast 462 532 45,000  Level Washington Center
Sat 08:53:17 PM 38.5714 -76.2928 37° Northeast 462 532 45,000  Level Washington Center
Sat 08:54:15 PM 38.6722 -76.1900 38° Northeast 462 532 45,000  Level Washington Center
Sat 08:55:16 PM 38.7789 -76.0817 38° Northeast 476 548 45,000  Level Washington Center
Sat 08:56:17 PM 38.8856 -75.9811 36° Northeast 476 548 45,000  Level Washington Center
Sat 08:57:15 PM 38.9858 -75.8747 39° Northeast 470 541 45,000  Level Washington Center
Sat 08:58:15 PM 39.0861 -75.7708 39° Northeast 465 535 45,000  Level Washington Center
Sat 08:59:15 PM 39.1906 -75.6639 38° Northeast 465 535 45,000  Level Washington Center
Sat 09:00:15 PM 39.2925 -75.5594 38° Northeast 465 535 45,000  Level Washington Center
Sat 09:01:16 PM 39.3906 -75.4572 39° Northeast 465 535 45,000  Level Washington Center
Sat 09:02:15 PM 39.4903 -75.3522 39° Northeast 465 535 45,000  Level Washington Center
Sat 09:03:16 PM 39.5900 -75.2494 38° Northeast 465 535 45,000  Level Washington Center
Sat 09:04:17 PM 39.6981 -75.1331 40° Northeast 465 535 45,000  Level Washington Center
Sat 09:05:30 PM 39.8081 -75.0133 40° Northeast 469 540 45,000  Level New York Center
Sat 09:06:28 PM 39.9053 -74.9164 37° Northeast 463 533 45,000  Level New York Center
Sat 09:07:28 PM 40.0036 -74.7842 46° Northeast 453 521 45,000  Level New York Center
Sat 09:08:31 PM 40.0869 -74.6589 49° Northeast 453 521 45,000  Level New York Center
Sat 09:09:28 PM 40.1636 -74.5436 49° Northeast 459 528 45,000  Level New York Center
Sat 09:10:29 PM 40.2558 -74.3989 50° Northeast 472 543 45,000  Level New York Center
Sat 09:12:04 PM 40.3881 -74.1947 50° Northeast 470 541 45,000  Level Boston Center
Sat 09:13:04 PM 40.4714 -74.0631 50° Northeast 470 541 45,000  Level Boston Center
Sat 09:14:04 PM 40.5586 -73.9397 47° Northeast 464 534 45,000  Level Boston Center
Sat 09:15:04 PM 40.6436 -73.8075 50° Northeast 464 534 45,000  Level Boston Center
Sat 09:16:04 PM 40.7286 -73.6753 50° Northeast 469 540 45,000  Level Boston Center
Sat 09:17:04 PM 40.8111 -73.5342 52° Northeast 479 551 45,000  Level Boston Center
Sat 09:18:04 PM 40.8958 -73.3956 51° Northeast 479 551 45,000  Level Boston Center
Sat 09:19:04 PM 40.9739 -73.2842 47° Northeast 477 549 45,000  Level Boston Center
Sat 09:20:04 PM 41.0581 -73.1475 51° Northeast 477 549 45,000  Level Boston Center
Sat 09:21:04 PM 41.1403 -73.0022 53° Northeast 471 542 45,000  Level Boston Center
Sat 09:22:04 PM 41.2033 -72.8428 62° Northeast 476 548 45,000  Level Boston Center
Sat 09:23:04 PM 41.2789 -72.6667 60° Northeast 492 566 45,000 -200 Level Boston Center
Sat 09:24:04 PM 41.3417 -72.5092 62° Northeast 492 566 44,600 -850 Descending Boston Center
Sat 09:25:04 PM 41.4125 -72.3653 57° Northeast 485 558 43,300 -1,300 Descending Boston Center
Sat 09:26:04 PM 41.4875 -72.2572 47° Northeast 474 545 42,000 -1,500 Descending Boston Center
Sat 09:27:04 PM 41.5642 -72.1322 51° Northeast 449 517 40,300 -2,050 Descending Boston Center
Sat 09:28:04 PM 41.6325 -71.9931 57° Northeast 438 504 37,900 -2,550 Descending Boston Center
Sat 09:29:04 PM 41.6964 -71.8508 59° Northeast 438 504 35,200 -2,650 Descending Boston Center
Sat 09:30:04 PM 41.7581 -71.7025 61° Northeast 438 504 32,600 -2,550 Descending Boston Center
Sat 09:31:04 PM 41.8322 -71.5819 50° Northeast 438 504 30,100 -2,700 Descending Boston Center
Sat 09:32:04 PM 41.9378 -71.4717 38° Northeast 428 493 27,200 -2,750 Descending Boston Center
Sat 09:33:04 PM 42.0306 -71.3697 39° Northeast 423 487 24,600 -2,600 Descending Boston Center
Sat 09:34:04 PM 42.1153 -71.2758 39° Northeast 411 473 22,000 -2,650 Descending Boston Center
Sat 09:35:04 PM 42.1994 -71.1789 40° Northeast 400 460 19,300 -2,200 Descending Boston Center
Sat 09:36:04 PM 42.2653 -71.0906 45° Northeast 375 432 17,600 -2,050 Descending Boston Center
Sat 09:37:04 PM 42.3536 -70.9961 38° Northeast 364 419 15,200 -1,250 Descending Boston Center
Sat 09:38:04 PM 42.4233 -70.9072 43° Northeast 371 427 15,100 -305 Descending Boston Center
Sat 09:39:02 PM 42.5000 -70.8000 46° Northeast 372 428 14,600 -900 Descending KA90
Sat 09:40:04 PM 42.5881 -70.7594 19° North 335 386 13,300 -1,672 Descending Boston Center
Sat 09:41:04 PM 42.6739 -70.7767 352° North 298 343 11,200 -1,950 Descending Boston Center
Sat 09:42:04 PM 42.7447 -70.7833 356° North 291 335 9,400 -2,000 Descending Boston Center
Sat 09:43:04 PM 42.8219 -70.7983 352° North 265 305 7,200 -2,100 Descending Boston Center
Sat 09:44:04 PM 42.8828 -70.8108 351° North 246 283 5,200 -2,000 Descending Boston Center
Sat 09:45:04 PM 42.9564 -70.8572 335° Northwest 251 289 3,200 -1,974 Descending Boston Center
Sat 09:45:20 PM 42.9833 -70.8667 346° North 267 307 2,700 -1,200 Descending KA90
Sat 09:46:04 PM 43.0153 -70.8953 327° Northwest 257 296 2,000 -519 Descending Boston Center
Sat 09:47:04 PM 43.0758 -70.9222 342° North 230 265 1,800 -341 Descending Boston Center
Sat 09:47:32 PM 43.1000 -70.9000 34° Northeast 188 216 1,500 -656 Descending KA90
Sat 09:48:08 PM 43.1167 -70.8667 56° Northeast 166 191 1,100 3,750 Descending KA90
Sat 09:50:04 PM 43.0806 -70.8114 132° Southeast 75 86 11,000 3,375 Climbing Boston Center
Sat 09:51:04 PM 43.0700 -70.7831 117° Southeast 75 86 11,000  Level Boston Center
Sat 09:52:04 PM 43.0589 -70.7550 118° Southeast 75 86 11,000  Level Boston Center
Sat 09:53:04 PM 43.0481 -70.7269 118° Southeast 75 86 11,000  Level Boston Center
Sat 09:55:00 PM 43.0667 -70.8167 295° West  Level FlightAware Approximate
Sat 10:02:00 PM 43.0779 -70.8233 295° West  Level Estimated

Login

Don't have an account? Register now (free) for customized features, flight alerts, and more!